CFG2282 HTZA-HKMO
Flight info
| Callsign | CFG2282 |
|---|---|
| Flight time | 0h 34m |
| Altitude | 23000 |
| Route | UVUKO UVUKO2A |
| Aircraft | B763/H-SDE3FGHIM3RWXY/LB1 |
Departure
| Time | 2026-04-29 14:54 |
|---|---|
| Airport | Abeid Amani Karume International Airport (HTZA) |
Arrival
| Time | 2026-04-29 15:29 |
|---|---|
| Airport | Moi International Airport (HKMO) |
| Time | Latitude | Longitude | Altitude | Speed | Heading |
|---|---|---|---|---|---|
| 2026-04-29 14:29 | -6.22341 | 39.22171 | 59 ft | 0 kts | 354° |
| 2026-04-29 14:43 | -6.22341 | 39.22172 | 59 ft | 0 kts | 354° |
| 2026-04-29 14:43 | -6.22355 | 39.22173 | 59 ft | 2 kts | 354° |
| 2026-04-29 14:43 | -6.22370 | 39.22175 | 59 ft | 2 kts | 354° |
| 2026-04-29 14:44 | -6.22385 | 39.22176 | 59 ft | 2 kts | 354° |
| 2026-04-29 14:44 | -6.22400 | 39.22178 | 59 ft | 2 kts | 354° |
| 2026-04-29 14:44 | -6.22415 | 39.22179 | 59 ft | 2 kts | 11° |
| 2026-04-29 14:44 | -6.22428 | 39.22172 | 59 ft | 2 kts | 51° |
| 2026-04-29 14:45 | -6.22434 | 39.22161 | 59 ft | 0 kts | 81° |
| 2026-04-29 14:45 | -6.22435 | 39.22155 | 59 ft | 1 kts | 84° |
| 2026-04-29 14:45 | -6.22435 | 39.22154 | 59 ft | 0 kts | 84° |
| 2026-04-29 14:48 | -6.22432 | 39.22174 | 59 ft | 7 kts | 80° |
| 2026-04-29 14:48 | -6.22424 | 39.22252 | 59 ft | 13 kts | 84° |
| 2026-04-29 14:49 | -6.22400 | 39.22324 | 59 ft | 9 kts | 40° |
| 2026-04-29 14:49 | -6.22320 | 39.22329 | 59 ft | 16 kts | 355° |
| 2026-04-29 14:49 | -6.22173 | 39.22313 | 59 ft | 24 kts | 354° |
| 2026-04-29 14:49 | -6.22052 | 39.22301 | 59 ft | 17 kts | 354° |
| 2026-04-29 14:50 | -6.21930 | 39.22289 | 60 ft | 17 kts | 355° |
| 2026-04-29 14:50 | -6.21807 | 39.22277 | 60 ft | 12 kts | 358° |
| 2026-04-29 14:50 | -6.21767 | 39.22306 | 60 ft | 6 kts | 67° |
| 2026-04-29 14:50 | -6.21761 | 39.22349 | 60 ft | 5 kts | 85° |
| 2026-04-29 14:51 | -6.21758 | 39.22394 | 60 ft | 4 kts | 85° |
| 2026-04-29 14:51 | -6.21753 | 39.22424 | 60 ft | 4 kts | 68° |
| 2026-04-29 14:51 | -6.21732 | 39.22441 | 61 ft | 3 kts | 15° |
| 2026-04-29 14:51 | -6.21691 | 39.22436 | 62 ft | 12 kts | 353° |
| 2026-04-29 14:52 | -6.21524 | 39.22419 | 62 ft | 36 kts | 353° |
| 2026-04-29 14:52 | -6.21241 | 39.22389 | 64 ft | 28 kts | 357° |
| 2026-04-29 14:52 | -6.21161 | 39.22363 | 65 ft | 6 kts | 313° |
| 2026-04-29 14:52 | -6.21122 | 39.22350 | 65 ft | 5 kts | 3° |
| 2026-04-29 14:53 | -6.21108 | 39.22372 | 65 ft | 3 kts | 96° |
| 2026-04-29 14:53 | -6.21122 | 39.22382 | 65 ft | 2 kts | 170° |
| 2026-04-29 14:53 | -6.21141 | 39.22383 | 65 ft | 0 kts | 175° |
| 2026-04-29 14:54 | -6.21259 | 39.22393 | 63 ft | 56 kts | 175° |
| 2026-04-29 14:54 | -6.21901 | 39.22457 | 59 ft | 120 kts | 174° |
| 2026-04-29 14:54 | -6.22867 | 39.22552 | 258 ft | 149 kts | 176° |
| 2026-04-29 14:54 | -6.23846 | 39.22852 | 850 ft | 152 kts | 138° |
| 2026-04-29 14:55 | -6.24328 | 39.23764 | 1408 ft | 158 kts | 100° |
| 2026-04-29 14:55 | -6.24243 | 39.24902 | 1881 ft | 171 kts | 70° |
| 2026-04-29 14:55 | -6.23371 | 39.25834 | 2126 ft | 206 kts | 30° |
| 2026-04-29 14:55 | -6.21832 | 39.26094 | 2335 ft | 244 kts | 352° |
| 2026-04-29 14:56 | -6.20105 | 39.25576 | 2727 ft | 272 kts | 340° |
| 2026-04-29 14:56 | -6.18286 | 39.24920 | 3487 ft | 284 kts | 341° |
| 2026-04-29 14:56 | -6.16375 | 39.24369 | 4423 ft | 288 kts | 352° |
| 2026-04-29 14:56 | -6.14408 | 39.24227 | 5485 ft | 287 kts | 2° |
| 2026-04-29 14:57 | -6.12415 | 39.24317 | 6421 ft | 291 kts | 7° |
| 2026-04-29 14:57 | -6.10392 | 39.24532 | 7446 ft | 292 kts | 9° |
| 2026-04-29 14:57 | -6.08400 | 39.24813 | 8429 ft | 294 kts | 11° |
| 2026-04-29 14:57 | -6.06369 | 39.25141 | 9423 ft | 296 kts | 11° |
| 2026-04-29 14:58 | -6.04340 | 39.25489 | 10396 ft | 300 kts | 11° |
| 2026-04-29 14:58 | -6.02273 | 39.25856 | 11332 ft | 303 kts | 11° |
| 2026-04-29 14:58 | -6.00178 | 39.26234 | 12234 ft | 307 kts | 11° |
| 2026-04-29 14:58 | -5.98069 | 39.26619 | 13102 ft | 311 kts | 11° |
| 2026-04-29 14:59 | -5.95940 | 39.27008 | 13911 ft | 315 kts | 11° |
| 2026-04-29 14:59 | -5.93758 | 39.27409 | 14669 ft | 321 kts | 11° |
| 2026-04-29 14:59 | -5.91542 | 39.27816 | 15427 ft | 326 kts | 11° |
| 2026-04-29 14:59 | -5.89293 | 39.28229 | 15812 ft | 345 kts | 11° |
| 2026-04-29 15:00 | -5.86750 | 39.28698 | 15838 ft | 377 kts | 11° |
| 2026-04-29 15:00 | -5.84085 | 39.29188 | 15875 ft | 406 kts | 11° |
| 2026-04-29 15:00 | -5.81218 | 39.29714 | 16347 ft | 420 kts | 11° |
| 2026-04-29 15:00 | -5.78352 | 39.30240 | 17043 ft | 426 kts | 11° |
| 2026-04-29 15:01 | -5.75393 | 39.30784 | 17815 ft | 430 kts | 11° |
| 2026-04-29 15:01 | -5.72394 | 39.31335 | 18470 ft | 436 kts | 11° |
| 2026-04-29 15:01 | -5.69423 | 39.31880 | 19185 ft | 440 kts | 11° |
| 2026-04-29 15:01 | -5.66391 | 39.32438 | 19863 ft | 444 kts | 12° |
| 2026-04-29 15:02 | -5.63316 | 39.33002 | 20472 ft | 449 kts | 12° |
| 2026-04-29 15:02 | -5.60216 | 39.33572 | 21075 ft | 453 kts | 12° |
| 2026-04-29 15:02 | -5.57101 | 39.34144 | 21632 ft | 457 kts | 13° |
| 2026-04-29 15:02 | -5.53937 | 39.34726 | 22174 ft | 461 kts | 13° |
| 2026-04-29 15:03 | -5.50768 | 39.35309 | 22716 ft | 465 kts | 13° |
| 2026-04-29 15:03 | -5.47527 | 39.35904 | 22904 ft | 469 kts | 13° |
| 2026-04-29 15:03 | -5.44319 | 39.36494 | 22904 ft | 470 kts | 13° |
| 2026-04-29 15:03 | -5.41094 | 39.37085 | 22904 ft | 467 kts | 13° |
| 2026-04-29 15:04 | -5.37870 | 39.37678 | 22902 ft | 466 kts | 13° |
| 2026-04-29 15:04 | -5.34660 | 39.38267 | 22719 ft | 472 kts | 13° |
| 2026-04-29 15:04 | -5.31411 | 39.38863 | 22306 ft | 471 kts | 13° |
| 2026-04-29 15:04 | -5.28204 | 39.39452 | 21902 ft | 462 kts | 13° |
| 2026-04-29 15:05 | -5.25036 | 39.40033 | 21506 ft | 455 kts | 12° |
| 2026-04-29 15:05 | -5.21936 | 39.40603 | 21129 ft | 453 kts | 12° |
| 2026-04-29 15:05 | -5.18844 | 39.41171 | 20747 ft | 452 kts | 12° |
| 2026-04-29 15:05 | -5.15730 | 39.41743 | 20351 ft | 450 kts | 12° |
| 2026-04-29 15:06 | -5.12628 | 39.42312 | 19952 ft | 448 kts | 12° |
| 2026-04-29 15:06 | -5.09556 | 39.42875 | 19553 ft | 445 kts | 11° |
| 2026-04-29 15:06 | -5.06511 | 39.43435 | 19153 ft | 442 kts | 11° |
| 2026-04-29 15:06 | -5.03489 | 39.43989 | 18754 ft | 438 kts | 11° |
| 2026-04-29 15:07 | -5.00497 | 39.44537 | 18360 ft | 435 kts | 11° |
| 2026-04-29 15:07 | -4.97537 | 39.45081 | 17973 ft | 433 kts | 11° |
| 2026-04-29 15:07 | -4.94539 | 39.45631 | 17565 ft | 430 kts | 11° |
| 2026-04-29 15:07 | -4.91599 | 39.46170 | 17164 ft | 426 kts | 10° |
| 2026-04-29 15:08 | -4.88696 | 39.46702 | 16779 ft | 422 kts | 10° |
| 2026-04-29 15:08 | -4.85768 | 39.47238 | 16387 ft | 420 kts | 10° |
| 2026-04-29 15:08 | -4.82909 | 39.47762 | 15994 ft | 417 kts | 10° |
| 2026-04-29 15:08 | -4.80046 | 39.48287 | 15596 ft | 414 kts | 10° |
| 2026-04-29 15:09 | -4.77205 | 39.48808 | 15196 ft | 410 kts | 10° |
| 2026-04-29 15:09 | -4.74400 | 39.49323 | 14828 ft | 406 kts | 11° |
| 2026-04-29 15:09 | -4.71662 | 39.50055 | 14478 ft | 405 kts | 20° |
| 2026-04-29 15:09 | -4.69145 | 39.51266 | 14140 ft | 404 kts | 31° |
| 2026-04-29 15:10 | -4.66859 | 39.52920 | 13802 ft | 401 kts | 39° |
| 2026-04-29 15:10 | -4.64696 | 39.54658 | 13459 ft | 399 kts | 38° |
| 2026-04-29 15:10 | -4.62526 | 39.56408 | 13111 ft | 397 kts | 39° |
| 2026-04-29 15:10 | -4.60390 | 39.58141 | 12760 ft | 393 kts | 39° |
| 2026-04-29 15:11 | -4.58246 | 39.59890 | 12405 ft | 389 kts | 39° |
| 2026-04-29 15:11 | -4.56179 | 39.61578 | 12060 ft | 386 kts | 39° |
| 2026-04-29 15:11 | -4.54080 | 39.63294 | 11716 ft | 385 kts | 39° |
| 2026-04-29 15:11 | -4.52003 | 39.64991 | 11391 ft | 383 kts | 39° |
| 2026-04-29 15:12 | -4.50360 | 39.66336 | 11306 ft | 364 kts | 39° |
| 2026-04-29 15:12 | -4.49611 | 39.66948 | 11231 ft | 353 kts | 39° |
| 2026-04-29 15:12 | -4.47222 | 39.68902 | 11122 ft | 315 kts | 40° |
| 2026-04-29 15:12 | -4.45572 | 39.70253 | 10984 ft | 300 kts | 39° |
| 2026-04-29 15:13 | -4.43997 | 39.71542 | 10932 ft | 281 kts | 39° |
| 2026-04-29 15:13 | -4.42484 | 39.72781 | 10744 ft | 275 kts | 40° |
| 2026-04-29 15:13 | -4.41008 | 39.73988 | 10582 ft | 274 kts | 40° |
| 2026-04-29 15:13 | -4.39504 | 39.75219 | 10474 ft | 280 kts | 39° |
| 2026-04-29 15:14 | -4.37995 | 39.76452 | 10290 ft | 280 kts | 40° |
| 2026-04-29 15:14 | -4.36493 | 39.77680 | 10100 ft | 275 kts | 40° |
| 2026-04-29 15:14 | -4.35016 | 39.78888 | 9911 ft | 271 kts | 40° |
| 2026-04-29 15:14 | -4.33547 | 39.80090 | 9729 ft | 271 kts | 40° |
| 2026-04-29 15:15 | -4.32076 | 39.81291 | 9550 ft | 270 kts | 40° |
| 2026-04-29 15:15 | -4.30616 | 39.82486 | 9361 ft | 270 kts | 40° |
| 2026-04-29 15:15 | -4.29160 | 39.83675 | 9177 ft | 269 kts | 40° |
| 2026-04-29 15:15 | -4.27706 | 39.84864 | 8993 ft | 269 kts | 40° |
| 2026-04-29 15:16 | -4.26240 | 39.86062 | 8810 ft | 269 kts | 40° |
| 2026-04-29 15:16 | -4.24776 | 39.87258 | 8623 ft | 269 kts | 40° |
| 2026-04-29 15:16 | -4.23323 | 39.88446 | 8432 ft | 269 kts | 40° |
| 2026-04-29 15:16 | -4.21865 | 39.89638 | 8240 ft | 269 kts | 40° |
| 2026-04-29 15:17 | -4.20412 | 39.90825 | 8024 ft | 269 kts | 41° |
| 2026-04-29 15:17 | -4.18955 | 39.92015 | 7765 ft | 268 kts | 40° |
| 2026-04-29 15:17 | -4.17505 | 39.93200 | 7524 ft | 267 kts | 40° |
| 2026-04-29 15:17 | -4.16463 | 39.93883 | 7359 ft | 268 kts | 25° |
| 2026-04-29 15:18 | -4.14022 | 39.94145 | 7103 ft | 271 kts | 346° |
| 2026-04-29 15:18 | -4.12282 | 39.93405 | 6914 ft | 272 kts | 332° |
| 2026-04-29 15:18 | -4.10595 | 39.92505 | 6677 ft | 274 kts | 332° |
| 2026-04-29 15:18 | -4.08909 | 39.91593 | 6432 ft | 272 kts | 331° |
| 2026-04-29 15:19 | -4.07262 | 39.90685 | 6196 ft | 271 kts | 330° |
| 2026-04-29 15:19 | -4.05615 | 39.89770 | 5960 ft | 271 kts | 330° |
| 2026-04-29 15:19 | -4.03945 | 39.88836 | 5724 ft | 270 kts | 330° |
| 2026-04-29 15:19 | -4.02315 | 39.87923 | 5440 ft | 271 kts | 330° |
| 2026-04-29 15:20 | -4.00668 | 39.86999 | 5135 ft | 272 kts | 330° |
| 2026-04-29 15:20 | -3.99003 | 39.86065 | 4767 ft | 267 kts | 329° |
| 2026-04-29 15:20 | -3.97403 | 39.85166 | 4447 ft | 261 kts | 329° |
| 2026-04-29 15:20 | -3.95829 | 39.84283 | 4132 ft | 256 kts | 329° |
| 2026-04-29 15:21 | -3.94297 | 39.83421 | 3985 ft | 243 kts | 329° |
| 2026-04-29 15:21 | -3.92857 | 39.82613 | 3988 ft | 231 kts | 329° |
| 2026-04-29 15:21 | -3.91452 | 39.81823 | 4005 ft | 233 kts | 330° |
| 2026-04-29 15:21 | -3.90013 | 39.81015 | 4054 ft | 237 kts | 329° |
| 2026-04-29 15:22 | -3.88558 | 39.80188 | 4023 ft | 236 kts | 325° |
| 2026-04-29 15:22 | -3.87464 | 39.79050 | 4056 ft | 223 kts | 299° |
| 2026-04-29 15:22 | -3.86655 | 39.77691 | 3677 ft | 228 kts | 297° |
| 2026-04-29 15:22 | -3.85857 | 39.76339 | 3289 ft | 224 kts | 297° |
| 2026-04-29 15:23 | -3.85082 | 39.75001 | 2903 ft | 221 kts | 296° |
| 2026-04-29 15:23 | -3.84327 | 39.73680 | 2519 ft | 218 kts | 296° |
| 2026-04-29 15:23 | -3.83823 | 39.72284 | 2197 ft | 204 kts | 266° |
| 2026-04-29 15:23 | -3.84192 | 39.71077 | 2189 ft | 168 kts | 224° |
| 2026-04-29 15:24 | -3.85019 | 39.70285 | 2249 ft | 170 kts | 217° |
| 2026-04-29 15:24 | -3.85932 | 39.69481 | 2214 ft | 174 kts | 217° |
| 2026-04-29 15:24 | -3.86839 | 39.68686 | 2195 ft | 169 kts | 213° |
| 2026-04-29 15:24 | -3.87832 | 39.68084 | 2221 ft | 168 kts | 203° |
| 2026-04-29 15:25 | -3.88889 | 39.67539 | 2214 ft | 170 kts | 205° |
| 2026-04-29 15:25 | -3.89927 | 39.66961 | 2216 ft | 168 kts | 205° |
| 2026-04-29 15:25 | -3.90952 | 39.66389 | 2205 ft | 164 kts | 205° |
| 2026-04-29 15:25 | -3.91871 | 39.65873 | 2199 ft | 134 kts | 204° |
| 2026-04-29 15:26 | -3.92692 | 39.65418 | 2078 ft | 139 kts | 204° |
| 2026-04-29 15:26 | -3.93546 | 39.64946 | 1894 ft | 138 kts | 204° |
| 2026-04-29 15:26 | -3.94380 | 39.64484 | 1693 ft | 137 kts | 204° |
| 2026-04-29 15:26 | -3.95226 | 39.64020 | 1448 ft | 137 kts | 204° |
| 2026-04-29 15:27 | -3.96064 | 39.63558 | 1233 ft | 137 kts | 205° |
| 2026-04-29 15:27 | -3.96891 | 39.63105 | 1073 ft | 136 kts | 204° |
| 2026-04-29 15:27 | -3.97739 | 39.62643 | 933 ft | 136 kts | 205° |
| 2026-04-29 15:27 | -3.98570 | 39.62168 | 786 ft | 140 kts | 205° |
| 2026-04-29 15:28 | -3.99416 | 39.61700 | 626 ft | 138 kts | 205° |
| 2026-04-29 15:28 | -3.99988 | 39.61385 | 518 ft | 137 kts | 205° |
| 2026-04-29 15:28 | -4.01109 | 39.60747 | 301 ft | 142 kts | 206° |
| 2026-04-29 15:28 | -4.01945 | 39.60284 | 196 ft | 131 kts | 206° |
| 2026-04-29 15:29 | -4.02663 | 39.59888 | 195 ft | 85 kts | 209° |
| 2026-04-29 15:29 | -4.03263 | 39.59552 | 200 ft | 10 kts | 207° |
| 2026-04-29 15:30 | -4.03327 | 39.59608 | 201 ft | 7 kts | 90° |
| 2026-04-29 15:30 | -4.03327 | 39.59657 | 202 ft | 7 kts | 90° |
| 2026-04-29 15:30 | -4.03327 | 39.59706 | 203 ft | 7 kts | 90° |
| 2026-04-29 15:30 | -4.03327 | 39.59755 | 204 ft | 7 kts | 89° |
| 2026-04-29 15:31 | -4.03326 | 39.59804 | 205 ft | 7 kts | 89° |
| 2026-04-29 15:31 | -4.03325 | 39.59856 | 205 ft | 7 kts | 89° |
| 2026-04-29 15:31 | -4.03324 | 39.59915 | 205 ft | 9 kts | 89° |
| 2026-04-29 15:31 | -4.03324 | 39.59941 | 205 ft | 0 kts | 90° |
| 2026-04-29 15:32 | -4.03323 | 39.59971 | 205 ft | 9 kts | 84° |
| 2026-04-29 15:32 | -4.03283 | 39.60056 | 207 ft | 17 kts | 43° |
| 2026-04-29 15:32 | -4.03266 | 39.60071 | 208 ft | 3 kts | 39° |
| 2026-04-29 15:33 | -4.03209 | 39.60109 | 208 ft | 11 kts | 32° |
| 2026-04-29 15:33 | -4.03178 | 39.60129 | 208 ft | 2 kts | 57° |
| 2026-04-29 15:33 | -4.03187 | 39.60158 | 208 ft | 4 kts | 122° |
| 2026-04-29 15:33 | -4.03203 | 39.60189 | 208 ft | 3 kts | 118° |
| 2026-04-29 15:34 | -4.03207 | 39.60195 | 208 ft | 0 kts | 119° |